Time;durP1;ratioP1;P1;durP2;ratioP2;P2;SDS_P1;SDS_P2;PMS_P1;PMS_P2;Temp;Humidity;BMP_temperature;BMP_pressure;BME280_temperature;BME280_humidity;BME280_pressure;Samples;Min_cycle;Max_cycle;Signal;HPM_P1;HPM_P2
2021/01/20 00:00:48;;;;;;;2.15;1.00;;;;;;;5.49;52.32;95365.91;4970773;28;20091;-52
2021/01/20 00:03:15;;;;;;;3.60;1.20;;;;;;;5.46;53.20;95358.50;4971918;28;20055;-50
2021/01/20 00:05:41;;;;;;;1.23;0.77;;;;;;;5.36;53.55;95362.25;4972752;28;20177;-54
2021/01/20 00:08:08;;;;;;;1.63;0.80;;;;;;;5.39;54.24;95346.34;4965239;28;20142;-50
2021/01/20 00:10:34;;;;;;;1.55;0.82;;;;;;;5.41;54.65;95347.91;4971900;28;20126;-50
2021/01/20 00:13:00;;;;;;;1.38;0.77;;;;;;;5.42;55.00;95344.91;4968469;28;20074;-51
2021/01/20 00:15:27;;;;;;;3.05;0.80;;;;;;;5.43;55.32;95351.06;4968479;28;20078;-50
2021/01/20 00:17:53;;;;;;;1.90;1.00;;;;;;;5.47;55.43;95346.66;4970808;28;20047;-49
2021/01/20 00:20:20;;;;;;;1.40;0.65;;;;;;;5.46;55.62;95334.34;4967593;28;20557;-51
2021/01/20 00:22:47;;;;;;;0.90;0.70;;;;;;;5.36;56.21;95335.44;4972358;28;20492;-53
2021/01/20 00:25:17;;;;;;;0.90;0.65;;;;;;;5.30;56.64;95331.34;4972644;28;20089;-52
2021/01/20 00:27:43;;;;;;;1.70;1.08;;;;;;;5.38;56.37;95328.66;4969864;28;20051;-54
2021/01/20 00:30:11;;;;;;;2.38;1.40;;;;;;;5.35;56.81;95329.28;4972409;28;20535;-54
2021/01/20 00:32:37;;;;;;;1.88;0.90;;;;;;;5.27;56.67;95313.97;4972087;28;20146;-50
2021/01/20 00:35:09;;;;;;;2.00;0.90;;;;;;;5.16;57.32;95326.09;4972742;28;20050;-52
2021/01/20 00:37:38;;;;;;;1.20;0.77;;;;;;;5.20;56.86;95321.69;4969954;28;20050;-51
2021/01/20 00:40:06;;;;;;;0.93;0.70;;;;;;;5.19;57.11;95317.41;4952973;28;20082;-51
2021/01/20 00:42:32;;;;;;;1.13;0.70;;;;;;;5.23;56.59;95302.31;4968104;28;20133;-51
2021/01/20 00:45:00;;;;;;;1.75;0.85;;;;;;;5.62;55.85;95327.41;4971447;28;20078;-50
2021/01/20 00:47:27;;;;;;;1.80;0.90;;;;;;;5.59;55.53;95317.34;4966960;28;20503;-55
2021/01/20 00:49:54;;;;;;;1.45;0.80;;;;;;;5.40;56.26;95312.25;4959869;28;20051;-53
2021/01/20 00:52:20;;;;;;;1.20;0.80;;;;;;;5.51;55.72;95320.78;4965349;28;20117;-49
2021/01/20 00:54:47;;;;;;;2.05;0.88;;;;;;;5.53;55.38;95318.59;4971214;28;20491;-49
2021/01/20 00:57:13;;;;;;;1.20;0.80;;;;;;;5.49;54.92;95317.63;4966775;28;20090;-51
2021/01/20 00:59:40;;;;;;;1.63;0.65;;;;;;;5.50;55.19;95324.59;4963490;28;20051;-53
2021/01/20 01:02:06;;;;;;;1.27;0.80;;;;;;;5.36;55.16;95320.16;4964349;28;20039;-52
2021/01/20 01:04:37;;;;;;;1.35;0.88;;;;;;;5.32;57.55;95323.75;4959869;28;20061;-52
2021/01/20 01:07:04;;;;;;;1.55;0.88;;;;;;;5.34;56.47;95326.91;4964953;28;20043;-50
2021/01/20 01:09:36;;;;;;;2.33;0.82;;;;;;;5.26;56.69;95333.84;4970267;28;20113;-53
2021/01/20 01:12:10;;;;;;;1.95;0.90;;;;;;;5.11;56.42;95340.44;4970373;28;20043;-54
2021/01/20 01:14:37;;;;;;;1.70;0.80;;;;;;;5.06;56.79;95342.47;4966649;28;20110;-51
2021/01/20 01:17:16;;;;;;;1.25;0.75;;;;;;;5.13;57.04;95345.47;4965311;28;20059;-51
2021/01/20 01:19:49;;;;;;;1.13;0.77;;;;;;;5.12;55.98;95357.31;4959374;28;20475;-53
2021/01/20 01:22:15;;;;;;;1.95;1.02;;;;;;;5.20;57.52;95356.56;4970234;28;20042;-54
2021/01/20 01:24:43;;;;;;;2.15;1.15;;;;;;;5.27;57.09;95346.16;4969859;28;20055;-51
2021/01/20 01:27:11;;;;;;;1.42;0.88;;;;;;;5.01;57.36;95339.94;4968485;28;20051;-52
2021/01/20 01:29:38;;;;;;;2.53;1.00;;;;;;;4.97;57.82;95338.97;4956870;28;20089;-51
2021/01/20 01:32:14;;;;;;;1.58;1.00;;;;;;;4.98;58.00;95348.59;4970724;28;20101;-50
2021/01/20 01:34:45;;;;;;;2.03;0.95;;;;;;;4.91;58.11;95360.56;4969853;28;20046;-52
2021/01/20 01:37:12;;;;;;;2.13;1.08;;;;;;;4.89;58.13;95349.34;4963942;28;20157;-53
2021/01/20 01:40:06;;;;;;;2.05;0.90;;;;;;;4.86;58.32;95346.50;4972097;28;20055;-53
2021/01/20 01:42:37;;;;;;;1.67;1.00;;;;;;;4.88;58.03;95357.72;4973941;28;20055;-52
2021/01/20 01:45:04;;;;;;;1.90;1.02;;;;;;;4.64;60.37;95352.72;4970425;28;20051;-51
2021/01/20 01:47:30;;;;;;;2.25;1.10;;;;;;;4.49;60.93;95361.94;4959263;28;20051;-51
2021/01/20 01:50:00;;;;;;;1.85;1.10;;;;;;;4.37;61.29;95354.47;4954967;28;20473;-54
2021/01/20 01:52:30;;;;;;;2.05;1.10;;;;;;;4.29;60.93;95352.53;4973634;28;20038;-52
2021/01/20 01:55:00;;;;;;;1.60;0.85;;;;;;;4.21;60.78;95339.88;4974732;28;20050;-54
2021/01/20 01:57:45;;;;;;;1.55;0.88;;;;;;;4.33;60.29;95342.78;4974281;28;20392;-51
2021/01/20 02:00:14;;;;;;;3.30;1.30;;;;;;;4.25;60.87;95343.53;4954513;29;20421;-51
2021/01/20 02:02:50;;;;;;;2.42;1.02;;;;;;;4.30;60.43;95347.97;4969207;28;20129;-53
2021/01/20 02:05:23;;;;;;;1.65;0.85;;;;;;;4.27;60.74;95351.25;4973919;28;20047;-53
2021/01/20 02:07:49;;;;;;;1.25;0.80;;;;;;;4.26;60.86;95341.63;4971827;28;20054;-52
2021/01/20 02:10:22;;;;;;;1.77;0.90;;;;;;;4.27;60.69;95344.00;4957773;28;20055;-50
2021/01/20 02:13:09;;;;;;;1.63;1.00;;;;;;;4.17;61.35;95333.56;4974552;28;20050;-49
2021/01/20 02:16:16;;;;;;;2.13;1.10;;;;;;;4.15;61.75;95336.53;4973323;28;20065;-52
2021/01/20 02:18:49;;;;;;;3.00;1.23;;;;;;;4.20;61.53;95333.75;4966769;28;20057;-54
2021/01/20 02:21:27;;;;;;;1.63;0.90;;;;;;;4.16;61.49;95322.06;4976323;28;20047;-54
2021/01/20 02:24:13;;;;;;;2.13;0.90;;;;;;;4.14;61.29;95336.84;4974049;28;20050;-54
2021/01/20 02:27:07;;;;;;;2.53;1.00;;;;;;;3.41;63.36;95323.56;4968252;28;20050;-48
2021/01/20 02:29:58;;;;;;;2.15;1.10;;;;;;;3.38;64.09;95324.16;4973260;28;20074;-51
2021/01/20 02:32:48;;;;;;;2.15;1.00;;;;;;;3.35;63.93;95319.41;4960109;28;20560;-51
2021/01/20 02:35:16;;;;;;;1.95;1.10;;;;;;;3.52;62.92;95329.47;4972332;28;20141;-50
2021/01/20 02:37:45;;;;;;;1.63;0.93;;;;;;;3.43;64.14;95321.34;4970933;28;20043;-51
2021/01/20 02:40:37;;;;;;;1.83;1.00;;;;;;;3.46;64.43;95328.78;4973738;28;20128;-46
2021/01/20 02:43:26;;;;;;;1.73;0.98;;;;;;;3.35;64.98;95318.59;4973852;28;20413;-49
2021/01/20 02:46:12;;;;;;;1.98;1.05;;;;;;;3.54;64.08;95332.59;4958460;28;20048;-49
2021/01/20 02:48:39;;;;;;;1.08;0.80;;;;;;;3.35;64.39;95332.78;4971619;28;20074;-46
2021/01/20 02:51:09;;;;;;;1.42;0.90;;;;;;;3.39;64.81;95327.63;4966261;28;20138;-47
2021/01/20 02:53:59;;;;;;;3.40;1.15;;;;;;;3.42;64.20;95327.81;4973019;28;20054;-47
2021/01/20 02:57:02;;;;;;;2.42;1.08;;;;;;;3.55;64.09;95318.16;4970152;28;20087;-52
2021/01/20 02:59:43;;;;;;;2.20;1.20;;;;;;;3.54;64.04;95318.44;4970524;28;20050;-51
2021/01/20 03:02:31;;;;;;;2.08;0.95;;;;;;;3.63;63.56;95319.31;4971894;28;20078;-47
2021/01/20 03:04:59;;;;;;;1.60;0.80;;;;;;;3.64;63.53;95316.34;4973226;28;20260;-46
2021/01/20 03:07:29;;;;;;;1.88;1.00;;;;;;;3.59;62.74;95323.69;4959166;28;20105;-48
2021/01/20 03:09:56;;;;;;;1.73;1.00;;;;;;;3.53;62.43;95316.88;4967069;28;20068;-52
2021/01/20 03:12:30;;;;;;;2.78;1.40;;;;;;;3.56;62.85;95311.72;4973534;28;20055;-49
2021/01/20 03:15:01;;;;;;;1.90;1.10;;;;;;;3.59;61.42;95318.34;4973373;28;20047;-47
2021/01/20 03:17:31;;;;;;;1.27;0.80;;;;;;;3.60;60.58;95317.25;4955700;28;20539;-48
2021/01/20 03:19:58;;;;;;;2.00;1.00;;;;;;;3.30;61.58;95297.31;4956880;28;20061;-47
2021/01/20 03:22:24;;;;;;;2.20;1.10;;;;;;;3.39;61.64;95304.34;4972944;28;20058;-46
2021/01/20 03:24:51;;;;;;;2.83;0.88;;;;;;;3.37;62.23;95317.19;4972492;28;20082;-48
2021/01/20 03:27:17;;;;;;;2.47;1.08;;;;;;;3.41;62.40;95302.16;4966803;28;20520;-50
2021/01/20 03:29:44;;;;;;;2.03;0.88;;;;;;;3.50;62.11;95305.66;4973347;28;20095;-50
2021/01/20 03:32:10;;;;;;;1.70;0.90;;;;;;;3.70;61.78;95299.06;4971955;28;20447;-51
2021/01/20 03:34:37;;;;;;;2.20;0.98;;;;;;;3.66;60.80;95305.34;4961470;28;20043;-53
2021/01/20 03:37:04;;;;;;;2.22;0.90;;;;;;;3.74;60.79;95301.94;4973314;28;20123;-46
2021/01/20 03:39:30;;;;;;;2.03;0.70;;;;;;;3.78;60.50;95292.22;4973152;28;20656;-46
2021/01/20 03:41:56;;;;;;;1.77;0.90;;;;;;;3.86;59.80;95293.34;4972314;28;20047;-48
2021/01/20 03:44:23;;;;;;;2.05;1.00;;;;;;;3.74;60.35;95285.91;4966982;28;20051;-47
2021/01/20 03:46:50;;;;;;;4.05;1.10;;;;;;;3.71;60.20;95294.53;4970855;28;20046;-48
2021/01/20 03:49:17;;;;;;;2.00;0.98;;;;;;;3.84;59.11;95287.53;4967649;28;20159;-52
2021/01/20 03:51:45;;;;;;;2.03;1.00;;;;;;;3.97;58.27;95290.13;4969289;28;20047;-51
2021/01/20 03:54:14;;;;;;;2.50;0.90;;;;;;;3.97;58.81;95284.00;4972762;28;20058;-50
2021/01/20 03:56:41;;;;;;;2.40;1.15;;;;;;;4.05;58.24;95277.09;4960287;28;20050;-50
2021/01/20 03:59:07;;;;;;;1.58;0.88;;;;;;;3.97;58.63;95281.31;4966118;28;20043;-52
2021/01/20 04:01:34;;;;;;;0.82;0.70;;;;;;;3.94;58.50;95266.66;4953350;28;20049;-51
2021/01/20 04:04:01;;;;;;;2.63;0.90;;;;;;;3.92;58.89;95265.38;4953394;28;20428;-49
2021/01/20 04:06:33;;;;;;;1.35;0.80;;;;;;;4.02;57.89;95264.31;4972036;28;20046;-50
2021/01/20 04:09:00;;;;;;;2.08;1.05;;;;;;;3.79;58.93;95274.25;4956350;28;20051;-52
2021/01/20 04:11:26;;;;;;;2.08;0.90;;;;;;;3.65;58.69;95272.44;4970473;28;20078;-52
2021/01/20 04:13:52;;;;;;;1.60;0.70;;;;;;;3.66;58.69;95270.56;4972061;28;20126;-55
2021/01/20 04:16:19;;;;;;;2.45;0.73;;;;;;;3.81;58.54;95266.72;4969768;28;20062;-54
2021/01/20 04:18:45;;;;;;;0.80;0.52;;;;;;;3.77;58.33;95249.69;4963745;28;20059;-50
2021/01/20 04:21:12;;;;;;;1.30;0.70;;;;;;;3.78;58.15;95254.75;4954909;28;20051;-49
2021/01/20 04:23:38;;;;;;;1.20;0.63;;;;;;;3.78;58.06;95262.00;4972599;28;20062;-50
2021/01/20 04:26:06;;;;;;;1.33;0.70;;;;;;;3.77;57.21;95247.00;4971077;28;20078;-51
2021/01/20 04:28:33;;;;;;;1.42;0.80;;;;;;;3.82;58.11;95250.38;4969954;28;20246;-51
2021/01/20 04:31:00;;;;;;;2.85;0.80;;;;;;;4.02;57.16;95256.31;4970295;28;20051;-52
2021/01/20 04:33:27;;;;;;;2.13;0.57;;;;;;;4.02;57.14;95258.97;4972680;28;20110;-50
2021/01/20 04:35:54;;;;;;;1.30;0.70;;;;;;;3.94;57.69;95250.59;4970396;28;20063;-49
2021/01/20 04:38:21;;;;;;;2.13;1.52;;;;;;;3.86;57.58;95259.34;4961401;28;20137;-50
2021/01/20 04:40:54;;;;;;;2.67;1.02;;;;;;;3.93;57.88;95254.38;4971753;28;20284;-53
2021/01/20 04:43:21;;;;;;;1.58;0.73;;;;;;;3.88;57.38;95243.00;4970607;28;20520;-53
2021/01/20 04:45:49;;;;;;;1.20;0.70;;;;;;;4.01;57.42;95255.50;4969209;28;20295;-53
2021/01/20 04:48:16;;;;;;;1.77;0.80;;;;;;;4.12;56.72;95256.03;4964169;28;20540;-54
2021/01/20 04:50:46;;;;;;;1.98;0.93;;;;;;;4.14;57.20;95251.19;4969258;28;20051;-52
2021/01/20 04:53:14;;;;;;;1.27;0.60;;;;;;;3.98;56.88;95248.09;4972648;28;20047;-53
2021/01/20 04:55:44;;;;;;;1.13;0.60;;;;;;;3.99;56.87;95242.41;4971458;28;20078;-54
2021/01/20 04:58:12;;;;;;;1.75;0.70;;;;;;;4.09;56.40;95243.25;4969132;28;20082;-51
2021/01/20 05:00:40;;;;;;;2.03;1.05;;;;;;;4.10;56.81;95244.88;4971899;28;20051;-55
2021/01/20 05:03:07;;;;;;;0.82;0.70;;;;;;;3.99;56.95;95257.69;4971613;28;20377;-52
2021/01/20 05:05:35;;;;;;;0.75;0.68;;;;;;;4.07;56.71;95256.19;4969336;28;20051;-52
2021/01/20 05:08:02;;;;;;;1.17;0.70;;;;;;;4.07;56.83;95253.50;4952915;28;20083;-53
2021/01/20 05:10:29;;;;;;;0.90;0.60;;;;;;;4.05;56.38;95247.66;4971143;28;20117;-49
2021/01/20 05:12:55;;;;;;;1.13;0.80;;;;;;;3.85;57.97;95252.44;4972052;28;20461;-52
2021/01/20 05:15:30;;;;;;;2.10;0.50;;;;;;;3.92;56.42;95231.38;4972140;28;20126;-52
2021/01/20 05:18:06;;;;;;;2.20;0.70;;;;;;;4.01;57.15;95238.66;4975430;28;20098;-52
2021/01/20 05:20:34;;;;;;;1.15;0.63;;;;;;;3.86;57.27;95248.66;4959862;28;20082;-51
2021/01/20 05:23:05;;;;;;;0.95;0.55;;;;;;;3.98;57.21;95251.56;4955526;29;20134;-50
2021/01/20 05:25:37;;;;;;;0.90;0.60;;;;;;;4.04;56.34;95248.75;4967036;28;20128;-50
2021/01/20 05:28:23;;;;;;;1.35;0.68;;;;;;;4.14;56.85;95233.22;4974498;28;20051;-49
2021/01/20 05:30:58;;;;;;;2.20;0.70;;;;;;;4.26;56.35;95240.69;4975024;28;20445;-50
2021/01/20 05:33:43;;;;;;;1.45;0.80;;;;;;;4.14;56.46;95221.72;4972826;28;20054;-50
2021/01/20 05:36:14;;;;;;;1.42;0.82;;;;;;;4.05;56.78;95235.06;4975032;28;20061;-54
2021/01/20 05:38:44;;;;;;;1.00;0.65;;;;;;;3.91;57.15;95235.16;4973362;28;20047;-48
2021/01/20 05:41:27;;;;;;;1.75;0.80;;;;;;;4.11;56.44;95243.75;4967878;28;20437;-51
2021/01/20 05:44:13;;;;;;;0.75;0.52;;;;;;;4.04;57.12;95243.41;4973189;28;20051;-49
2021/01/20 05:46:41;;;;;;;1.40;0.70;;;;;;;4.12;56.72;95223.91;4975133;28;20050;-54
2021/01/20 05:49:29;;;;;;;1.73;0.93;;;;;;;4.16;56.56;95235.56;4971397;28;20462;-54
2021/01/20 05:51:56;;;;;;;2.13;0.80;;;;;;;4.25;56.87;95236.41;4956083;28;20059;-55
2021/01/20 05:54:35;;;;;;;1.90;0.80;;;;;;;4.30;56.81;95236.28;4965824;28;20058;-54
2021/01/20 05:57:21;;;;;;;2.50;0.90;;;;;;;4.30;57.34;95240.84;4975299;28;20059;-53
2021/01/20 05:59:50;;;;;;;2.90;0.90;;;;;;;4.08;57.69;95225.63;4969516;28;20069;-52
2021/01/20 06:02:18;;;;;;;4.03;1.98;;;;;;;4.17;58.02;95240.63;4973097;28;20046;-55
2021/01/20 06:04:45;;;;;;;3.60;1.88;;;;;;;4.13;58.62;95230.88;4974140;28;20059;-55
2021/01/20 06:07:14;;;;;;;4.88;1.73;;;;;;;4.12;58.94;95238.09;4969948;28;20580;-54
2021/01/20 06:09:42;;;;;;;2.97;1.50;;;;;;;3.99;59.06;95231.72;4968694;28;20194;-49
2021/01/20 06:12:11;;;;;;;2.58;1.30;;;;;;;4.00;59.70;95237.88;4963530;28;20468;-53
2021/01/20 06:14:38;;;;;;;4.47;1.77;;;;;;;3.90;60.46;95240.78;4974543;28;20141;-53
2021/01/20 06:17:15;;;;;;;3.53;1.50;;;;;;;4.03;60.13;95236.47;4973042;28;20046;-52
2021/01/20 06:19:49;;;;;;;3.65;1.65;;;;;;;3.96;60.49;95235.03;4956159;28;20118;-49
2021/01/20 06:22:18;;;;;;;2.75;1.35;;;;;;;3.82;61.17;95238.88;4959736;28;20047;-52
2021/01/20 06:24:49;;;;;;;3.72;1.75;;;;;;;3.79;61.44;95234.91;4968410;28;20126;-48
2021/01/20 06:27:23;;;;;;;3.83;1.90;;;;;;;4.00;60.81;95237.88;4973671;28;20054;-52
2021/01/20 06:30:22;;;;;;;3.22;1.75;;;;;;;3.99;60.81;95236.28;4974040;28;20581;-52
2021/01/20 06:32:49;;;;;;;3.47;1.80;;;;;;;3.87;61.04;95223.50;4973810;28;20134;-52
2021/01/20 06:35:16;;;;;;;2.83;1.67;;;;;;;3.90;61.16;95233.56;4973257;28;20078;-49
2021/01/20 06:37:48;;;;;;;3.45;1.80;;;;;;;3.99;61.16;95229.03;4955632;28;20059;-52
2021/01/20 06:40:17;;;;;;;2.67;1.65;;;;;;;3.97;61.26;95233.13;4966638;28;20096;-50
2021/01/20 06:42:44;;;;;;;3.20;1.85;;;;;;;3.86;61.71;95234.47;4973508;28;20053;-53
2021/01/20 06:45:18;;;;;;;2.38;1.08;;;;;;;3.94;61.53;95233.75;4973737;28;20050;-50
2021/01/20 06:48:00;;;;;;;3.05;0.98;;;;;;;3.68;62.37;95230.94;4966424;28;20505;-51
2021/01/20 06:50:53;;;;;;;1.98;1.17;;;;;;;3.74;62.35;95232.38;4960047;28;20047;-52
2021/01/20 06:53:20;;;;;;;2.65;0.90;;;;;;;3.64;61.88;95221.91;4966247;28;20074;-52
2021/01/20 06:55:46;;;;;;;1.92;0.90;;;;;;;3.45;62.36;95238.16;4973560;28;20082;-51
2021/01/20 06:58:19;;;;;;;2.65;0.98;;;;;;;3.58;61.98;95223.16;4972374;28;20515;-54
2021/01/20 07:01:01;;;;;;;2.28;1.05;;;;;;;3.35;62.63;95228.50;4955389;28;20061;-53
2021/01/20 07:03:44;;;;;;;2.80;1.10;;;;;;;3.50;62.29;95235.34;4958441;28;20046;-52
2021/01/20 07:06:33;;;;;;;2.00;1.05;;;;;;;3.32;62.78;95233.66;4974403;28;20125;-54
2021/01/20 07:09:02;;;;;;;3.13;1.23;;;;;;;3.54;62.06;95236.31;4972667;28;20051;-52
2021/01/20 07:11:28;;;;;;;2.10;1.40;;;;;;;3.60;61.79;95228.97;4972151;28;20409;-51
2021/01/20 07:13:55;;;;;;;2.85;1.13;;;;;;;3.48;61.85;95222.28;4972760;28;20082;-53
2021/01/20 07:16:21;;;;;;;2.85;1.20;;;;;;;3.56;61.80;95228.00;4964902;28;20559;-55
2021/01/20 07:18:52;;;;;;;2.00;1.00;;;;;;;3.67;60.83;95223.97;4972429;28;20719;-49
2021/01/20 07:21:19;;;;;;;3.20;1.63;;;;;;;3.54;61.64;95224.84;4971582;28;20090;-51
2021/01/20 07:23:46;;;;;;;1.33;1.00;;;;;;;3.70;61.03;95226.03;4972917;28;20074;-54
2021/01/20 07:26:15;;;;;;;3.10;1.20;;;;;;;3.88;59.92;95213.56;4971881;28;20565;-47
2021/01/20 07:28:41;;;;;;;3.20;1.05;;;;;;;3.79;60.01;95210.84;4967833;28;20070;-50
2021/01/20 07:31:13;;;;;;;1.38;0.93;;;;;;;3.80;60.00;95227.66;4969759;28;20137;-52
2021/01/20 07:33:51;;;;;;;3.33;1.20;;;;;;;3.80;60.22;95214.28;4970195;28;20496;-54
2021/01/20 07:36:20;;;;;;;3.28;1.30;;;;;;;3.79;59.34;95194.78;4970156;28;20256;-55
2021/01/20 07:38:48;;;;;;;2.90;1.10;;;;;;;3.98;59.19;95211.41;4971675;28;20428;-52
2021/01/20 07:41:22;;;;;;;1.77;1.13;;;;;;;3.97;58.99;95199.13;4971999;28;20121;-52
2021/01/20 07:43:50;;;;;;;5.10;0.95;;;;;;;4.13;58.64;95214.81;4965501;28;20146;-51
2021/01/20 07:46:19;;;;;;;2.35;1.30;;;;;;;4.15;58.34;95212.59;4968532;28;20051;-51
2021/01/20 07:48:46;;;;;;;2.25;1.05;;;;;;;4.18;58.30;95209.28;4963882;28;20186;-51
2021/01/20 07:51:23;;;;;;;2.20;1.00;;;;;;;4.29;58.40;95212.47;4971468;28;20058;-54
2021/01/20 07:54:01;;;;;;;3.00;1.10;;;;;;;4.58;57.24;95217.31;4964511;28;20058;-51
2021/01/20 07:56:28;;;;;;;1.70;1.30;;;;;;;4.55;57.24;95205.34;4978435;28;20386;-51
2021/01/20 07:58:56;;;;;;;4.82;1.48;;;;;;;4.66;56.82;95222.69;4962110;28;20062;-51
2021/01/20 08:01:30;;;;;;;2.92;1.33;;;;;;;4.52;57.13;95194.44;4963420;28;20078;-54
2021/01/20 08:03:58;;;;;;;2.63;1.20;;;;;;;4.58;56.68;95198.53;4970910;28;20038;-53
2021/01/20 08:06:26;;;;;;;2.63;1.20;;;;;;;4.57;56.78;95208.47;4967851;28;20154;-53
2021/01/20 08:08:54;;;;;;;3.33;1.10;;;;;;;4.47;56.81;95206.09;4973705;28;20492;-50
2021/01/20 08:11:27;;;;;;;1.80;1.00;;;;;;;4.40;57.19;95198.50;4971530;28;20058;-52
2021/01/20 08:13:55;;;;;;;3.75;1.10;;;;;;;4.65;56.64;95205.03;4964382;28;20560;-52
2021/01/20 08:16:21;;;;;;;4.18;2.38;;;;;;;4.93;55.57;95204.75;4954882;28;20098;-51
2021/01/20 08:18:49;;;;;;;3.05;1.30;;;;;;;4.98;55.26;95201.16;4969069;28;20047;-50
2021/01/20 08:21:15;;;;;;;4.47;1.40;;;;;;;5.03;55.66;95201.78;4970205;28;20130;-52
2021/01/20 08:23:47;;;;;;;4.20;1.50;;;;;;;5.14;54.84;95204.97;4960187;28;20051;-54
2021/01/20 08:26:13;;;;;;;4.97;1.40;;;;;;;4.85;55.63;95203.66;4959170;28;20556;-54
2021/01/20 08:29:10;;;;;;;2.67;1.20;;;;;;;4.87;55.59;95201.44;4960736;28;20110;-53
2021/01/20 08:31:40;;;;;;;2.53;1.23;;;;;;;4.90;55.49;95211.53;4963095;28;20423;-51
2021/01/20 08:34:14;;;;;;;5.28;1.30;;;;;;;4.82;55.50;95201.59;4965534;28;20061;-52
2021/01/20 08:37:08;;;;;;;2.08;1.08;;;;;;;5.07;55.19;95208.09;4966096;28;20549;-49
2021/01/20 08:39:37;;;;;;;4.50;1.90;;;;;;;4.97;55.33;95194.19;4966474;28;20067;-46
2021/01/20 08:42:40;;;;;;;2.67;1.20;;;;;;;5.16;55.22;95208.09;4964555;28;20121;-47
2021/01/20 08:45:14;;;;;;;2.45;1.20;;;;;;;5.34;54.77;95203.53;4963164;28;20058;-47
2021/01/20 08:48:07;;;;;;;1.52;1.00;;;;;;;5.47;54.21;95207.16;4959582;28;20469;-47
2021/01/20 08:50:43;;;;;;;3.45;1.27;;;;;;;5.41;54.15;95203.84;4957961;28;20133;-49
2021/01/20 08:53:24;;;;;;;2.40;1.35;;;;;;;5.59;53.48;95205.41;4962112;28;20050;-48
2021/01/20 08:55:53;;;;;;;4.30;1.50;;;;;;;5.80;52.78;95210.09;4961931;28;20424;-49
2021/01/20 08:58:33;;;;;;;3.38;1.85;;;;;;;5.86;52.95;95212.31;4961949;28;20141;-48
2021/01/20 09:01:02;;;;;;;4.28;1.20;;;;;;;5.97;52.61;95209.31;4965420;28;20406;-50
2021/01/20 09:03:34;;;;;;;2.35;1.20;;;;;;;6.13;52.04;95213.03;4964383;28;20504;-50
2021/01/20 09:06:03;;;;;;;3.28;1.23;;;;;;;6.45;51.27;95210.88;4962294;28;20055;-49
2021/01/20 09:08:30;;;;;;;2.95;1.33;;;;;;;6.40;50.84;95206.47;4964616;28;20785;-51
2021/01/20 09:10:59;;;;;;;2.40;1.42;;;;;;;6.73;50.49;95213.91;4964312;28;20039;-49
2021/01/20 09:13:26;;;;;;;3.33;1.50;;;;;;;6.74;49.95;95223.53;4957794;28;20057;-50
2021/01/20 09:15:54;;;;;;;3.88;1.60;;;;;;;7.03;50.10;95217.34;4965675;28;20059;-51
2021/01/20 09:18:22;;;;;;;5.15;1.92;;;;;;;6.57;50.32;95220.94;4961929;28;20054;-51
2021/01/20 09:20:50;;;;;;;2.95;1.60;;;;;;;6.81;49.91;95209.59;4966151;28;20170;-51
2021/01/20 09:23:17;;;;;;;2.25;1.20;;;;;;;6.83;49.89;95208.16;4960533;28;20512;-47
2021/01/20 09:25:45;;;;;;;2.45;1.30;;;;;;;6.89;49.79;95204.16;4961809;28;20051;-48
2021/01/20 09:28:12;;;;;;;4.25;1.98;;;;;;;6.83;49.40;95202.78;4964126;28;20394;-51
2021/01/20 09:30:38;;;;;;;8.55;4.40;;;;;;;6.89;49.23;95209.53;4961953;28;20606;-52
2021/01/20 09:33:05;;;;;;;3.08;1.42;;;;;;;6.85;49.25;95218.56;4961390;28;20047;-49
2021/01/20 09:35:32;;;;;;;3.47;1.38;;;;;;;7.10;48.53;95206.88;4961969;28;20043;-48
2021/01/20 09:37:59;;;;;;;4.03;1.50;;;;;;;7.20;48.64;95205.69;4961357;28;20082;-50
2021/01/20 09:40:27;;;;;;;18.73;6.30;;;;;;;7.24;48.69;95206.59;4964631;28;20047;-50
2021/01/20 09:42:54;;;;;;;10.30;4.35;;;;;;;7.36;48.35;95206.66;4963201;28;20077;-50
2021/01/20 09:45:29;;;;;;;15.85;5.85;;;;;;;7.61;48.13;95212.97;4961772;28;20050;-50
2021/01/20 09:47:57;;;;;;;11.95;4.00;;;;;;;7.90;47.35;95205.88;4966572;28;20057;-48
2021/01/20 09:50:26;;;;;;;8.73;3.30;;;;;;;8.09;46.60;95206.16;4962338;28;20077;-53
2021/01/20 09:52:53;;;;;;;7.70;2.30;;;;;;;7.92;46.59;95206.31;4964229;28;20070;-48
2021/01/20 09:55:21;;;;;;;5.28;2.25;;;;;;;7.26;49.27;95194.41;4963799;28;20051;-51
2021/01/20 09:57:48;;;;;;;4.38;2.13;;;;;;;6.91;51.06;95198.44;4959550;28;20149;-50
2021/01/20 10:00:15;;;;;;;5.30;2.13;;;;;;;7.06;51.06;95184.44;4980294;28;20051;-48
2021/01/20 10:02:41;;;;;;;4.38;1.83;;;;;;;7.00;51.11;95170.38;4970291;28;20047;-49
2021/01/20 10:05:09;;;;;;;10.73;2.50;;;;;;;7.06;51.24;95179.06;4966894;28;20051;-49
2021/01/20 10:07:38;;;;;;;4.60;2.30;;;;;;;7.19;50.58;95178.00;4968158;28;20117;-50
2021/01/20 10:10:09;;;;;;;5.70;2.20;;;;;;;7.23;50.94;95183.50;4964221;28;20055;-51
2021/01/20 10:12:37;;;;;;;4.57;1.63;;;;;;;7.72;48.65;95181.00;4967819;28;20125;-51
2021/01/20 10:15:07;;;;;;;2.67;1.50;;;;;;;8.04;45.93;95173.25;4960137;28;20494;-50
2021/01/20 10:17:34;;;;;;;4.78;1.42;;;;;;;8.24;45.99;95166.97;4965692;28;20055;-49
2021/01/20 10:20:02;;;;;;;2.47;1.20;;;;;;;8.33;45.02;95156.09;4961757;28;20069;-51
2021/01/20 10:22:28;;;;;;;3.45;1.42;;;;;;;8.54;44.94;95153.31;4965423;28;20663;-49
2021/01/20 10:24:56;;;;;;;4.18;1.60;;;;;;;8.72;44.38;95133.06;4966374;28;20051;-50
2021/01/20 10:27:22;;;;;;;4.53;2.60;;;;;;;7.53;48.62;95141.13;4962068;28;20059;-49
2021/01/20 10:29:49;;;;;;;12.98;3.00;;;;;;;7.18;50.29;95149.53;4982945;28;20057;-51
2021/01/20 10:32:16;;;;;;;7.70;3.50;;;;;;;6.63;50.73;95139.00;4961770;28;20051;-48
2021/01/20 10:34:42;;;;;;;5.50;2.90;;;;;;;5.98;52.62;95133.81;4972042;28;20071;-46
2021/01/20 10:37:09;;;;;;;6.50;3.10;;;;;;;5.97;52.93;95128.75;4973672;28;20047;-49
2021/01/20 10:39:35;;;;;;;7.13;2.95;;;;;;;6.25;52.71;95137.16;4967066;28;20078;-48
2021/01/20 10:42:02;;;;;;;9.13;2.85;;;;;;;6.76;51.51;95119.94;4963156;28;20079;-47
2021/01/20 10:44:28;;;;;;;7.15;3.25;;;;;;;6.83;51.32;95121.34;4962944;28;20057;-52
2021/01/20 10:46:55;;;;;;;9.77;3.55;;;;;;;6.73;50.78;95109.84;4959254;28;20066;-52
2021/01/20 10:49:21;;;;;;;7.70;3.90;;;;;;;6.44;52.70;95115.25;4970930;28;20488;-51
2021/01/20 10:51:51;;;;;;;6.90;3.40;;;;;;;6.68;52.84;95114.63;4974123;28;20078;-49
2021/01/20 10:54:18;;;;;;;8.05;3.10;;;;;;;6.31;53.62;95099.06;4970856;28;20132;-53
2021/01/20 10:56:44;;;;;;;6.10;3.50;;;;;;;6.58;52.46;95109.63;4972211;28;20149;-51
2021/01/20 10:59:11;;;;;;;9.55;3.83;;;;;;;6.90;51.57;95110.84;4972338;28;20661;-50
2021/01/20 11:01:37;;;;;;;7.15;3.25;;;;;;;6.91;51.49;95102.44;4969042;28;20061;-51
2021/01/20 11:04:04;;;;;;;9.27;3.53;;;;;;;7.40;51.65;95099.16;4964374;28;20050;-53
2021/01/20 11:06:31;;;;;;;6.10;3.22;;;;;;;6.74;51.45;95089.91;4973145;28;20174;-49
2021/01/20 11:08:59;;;;;;;6.65;3.17;;;;;;;6.69;51.20;95083.94;4972536;28;20105;-53
2021/01/20 11:11:27;;;;;;;5.10;3.10;;;;;;;6.96;50.15;95075.34;4972045;28;20138;-53
2021/01/20 11:13:54;;;;;;;7.28;2.80;;;;;;;6.61;50.88;95065.97;4973834;28;20543;-50
2021/01/20 11:16:21;;;;;;;9.52;3.58;;;;;;;7.09;50.19;95076.19;4968707;28;20456;-49
2021/01/20 11:18:51;;;;;;;5.88;2.95;;;;;;;7.62;48.39;95066.44;4965239;28;20523;-53
2021/01/20 11:21:17;;;;;;;6.50;3.20;;;;;;;8.22;47.59;95063.34;4969521;28;20802;-53
2021/01/20 11:23:45;;;;;;;6.35;2.83;;;;;;;8.01;47.55;95060.78;4971653;28;20083;-52
2021/01/20 11:26:12;;;;;;;5.88;2.70;;;;;;;7.59;48.42;95061.72;4973461;28;20057;-47
2021/01/20 11:28:39;;;;;;;8.10;2.88;;;;;;;8.20;46.91;95063.69;4972759;28;20066;-51
2021/01/20 11:31:06;;;;;;;5.80;2.55;;;;;;;8.50;46.21;95049.97;4971393;28;20121;-49
2021/01/20 11:33:37;;;;;;;5.05;2.78;;;;;;;8.36;46.33;95053.78;4973853;28;20054;-50
2021/01/20 11:36:06;;;;;;;5.75;2.60;;;;;;;9.63;42.98;95051.53;4969047;28;20085;-46
2021/01/20 11:38:34;;;;;;;7.32;2.60;;;;;;;9.35;42.82;95036.16;4970568;28;20051;-50
2021/01/20 11:41:03;;;;;;;4.72;2.60;;;;;;;9.95;42.03;95046.94;4972267;28;20050;-49
2021/01/20 11:43:29;;;;;;;5.50;2.45;;;;;;;10.28;40.07;95035.75;4964513;28;20516;-50
2021/01/20 11:45:56;;;;;;;4.40;2.13;;;;;;;10.30;40.19;95035.41;4970322;28;20050;-53
2021/01/20 11:48:25;;;;;;;8.82;2.88;;;;;;;10.34;40.36;95032.78;4972465;28;20051;-54
2021/01/20 11:50:51;;;;;;;4.00;2.40;;;;;;;13.08;35.15;95025.88;4968831;28;20062;-50
2021/01/20 11:53:22;;;;;;;5.05;3.00;;;;;;;15.86;29.81;95030.88;4973027;28;20053;-48
2021/01/20 11:55:51;;;;;;;5.35;3.00;;;;;;;16.55;27.60;95030.47;4966366;28;20054;-53
2021/01/20 11:58:18;;;;;;;3.80;2.47;;;;;;;17.31;26.12;95025.59;4967306;28;20066;-49